Terminal Aerodrome Forecast
Issued by NWS

Home | Current Version | Previous Version | Text Only | Print | Product List | Glossary On
Versions: 1 2 3 4 5 6 7 8 9 10 11 12 13
642
FTUS46 KHNX 271124
TAFVIS
TAF
KVIS 271124Z 2712/2812 35006KT P6SM SCT030 BKN050
     FM271600 31006KT P6SM SCT030
     FM272100 31015G26KT P6SM SCT030
     FM280600 31010KT P6SM SKC=

USA.gov is the U.S. government's official web portal to all federal, state and local government web resources and services.